Time;durP1;ratioP1;P1;durP2;ratioP2;P2;SDS_P1;SDS_P2;PMS_P1;PMS_P2;Temp;Humidity;BMP_temperature;BMP_pressure;BME280_temperature;BME280_humidity;BME280_pressure;Samples;Min_cycle;Max_cycle;Signal;HPM_P1;HPM_P2
2023/09/24 00:00:10;;;;;;;1.02;0.60;;;;;;;;;;4975706;28;20508;-60
2023/09/24 00:02:38;;;;;;;0.80;0.45;;;;;;;;;;4972133;28;20070;-60
2023/09/24 00:05:08;;;;;;;10.15;1.00;;;;;;;;;;4970266;28;20121;-60
2023/09/24 00:07:35;;;;;;;1.73;0.90;;;;;;;;;;4970485;28;20057;-59
2023/09/24 00:10:03;;;;;;;1.75;1.00;;;;;;;;;;4970353;28;20098;-59
2023/09/24 00:12:31;;;;;;;6.22;1.08;;;;;;;;;;4971865;28;20027;-59
2023/09/24 00:14:58;;;;;;;0.10;0.10;;;;;;;;;;4975121;28;20062;-60
2023/09/24 00:17:24;;;;;;;1.33;0.80;;;;;;;;;;4976447;28;20464;-60
2023/09/24 00:19:51;;;;;;;0.45;0.32;;;;;;;;;;4990959;28;20498;-60
2023/09/24 00:22:17;;;;;;;1.83;1.15;;;;;;;;;;4994039;28;20540;-60
2023/09/24 00:24:46;;;;;;;6.93;2.05;;;;;;;;;;4992490;28;20036;-61
2023/09/24 00:27:14;;;;;;;2.17;1.10;;;;;;;;;;4983255;28;20038;-60
2023/09/24 00:29:41;;;;;;;0.47;0.40;;;;;;;;;;4982148;28;20079;-59
2023/09/24 00:32:08;;;;;;;0.88;0.68;;;;;;;;;;4989531;28;20513;-59
2023/09/24 00:34:35;;;;;;;3.42;1.38;;;;;;;;;;4989942;28;20058;-59
2023/09/24 00:37:02;;;;;;;1.80;1.05;;;;;;;;;;4994149;28;20026;-59
2023/09/24 00:39:28;;;;;;;5.65;2.05;;;;;;;;;;4994180;28;20433;-59
2023/09/24 00:41:55;;;;;;;3.15;1.15;;;;;;;;;;4993248;28;20505;-60
2023/09/24 00:44:22;;;;;;;1.10;0.70;;;;;;;;;;4994027;28;20035;-59
2023/09/24 00:46:49;;;;;;;1.02;0.55;;;;;;;;;;4993174;28;20078;-60
2023/09/24 00:49:16;;;;;;;0.55;0.52;;;;;;;;;;4988968;28;20412;-59
2023/09/24 00:51:42;;;;;;;1.00;0.75;;;;;;;;;;4988996;28;20026;-59
2023/09/24 00:54:10;;;;;;;4.43;1.70;;;;;;;;;;4988218;28;20026;-59
2023/09/24 00:56:36;;;;;;;17.88;1.73;;;;;;;;;;4989002;28;20026;-60
2023/09/24 00:59:06;;;;;;;5.25;2.28;;;;;;;;;;4993290;28;20049;-59
2023/09/24 01:01:34;;;;;;;5.05;2.97;;;;;;;;;;4992620;28;20041;-60
2023/09/24 01:04:03;;;;;;;1.83;1.15;;;;;;;;;;4993377;28;20049;-59
2023/09/24 01:06:31;;;;;;;1.65;1.17;;;;;;;;;;4993527;28;20117;-60
2023/09/24 01:08:58;;;;;;;2.60;1.30;;;;;;;;;;4993619;28;20070;-59
2023/09/24 01:11:26;;;;;;;1.40;0.75;;;;;;;;;;4989106;28;20042;-60
2023/09/24 01:13:56;;;;;;;2.03;1.23;;;;;;;;;;4988750;28;20034;-60
2023/09/24 01:16:23;;;;;;;1.23;0.90;;;;;;;;;;4988806;28;20501;-60
2023/09/24 01:18:53;;;;;;;0.88;0.68;;;;;;;;;;4988127;28;20049;-60
2023/09/24 01:21:20;;;;;;;3.53;1.35;;;;;;;;;;4991341;28;20041;-59
2023/09/24 01:23:55;;;;;;;1.70;0.60;;;;;;;;;;4993302;28;20042;-60
2023/09/24 01:26:25;;;;;;;1.63;0.77;;;;;;;;;;4993388;28;20023;-60
2023/09/24 01:28:52;;;;;;;7.50;1.10;;;;;;;;;;4974318;28;20042;-59
2023/09/24 01:31:19;;;;;;;4.38;1.48;;;;;;;;;;4973857;28;20054;-60
2023/09/24 01:33:47;;;;;;;7.75;1.10;;;;;;;;;;4970198;28;20062;-59
2023/09/24 01:36:13;;;;;;;2.10;0.95;;;;;;;;;;4969040;28;20062;-60
2023/09/24 01:38:41;;;;;;;1.83;1.23;;;;;;;;;;4968632;28;20031;-59
2023/09/24 01:41:10;;;;;;;2.15;1.20;;;;;;;;;;4968915;28;20068;-59
2023/09/24 01:43:46;;;;;;;1.67;0.85;;;;;;;;;;4989299;28;20545;-59
2023/09/24 01:46:13;;;;;;;1.50;1.00;;;;;;;;;;4993100;28;20065;-59
2023/09/24 01:48:40;;;;;;;1.58;0.90;;;;;;;;;;4993119;28;20026;-59
2023/09/24 01:51:10;;;;;;;1.00;0.60;;;;;;;;;;4992949;28;20073;-59
2023/09/24 01:53:38;;;;;;;6.18;1.27;;;;;;;;;;4992523;28;20186;-59
2023/09/24 01:56:06;;;;;;;0.90;0.60;;;;;;;;;;4987660;28;20057;-59
2023/09/24 01:58:32;;;;;;;2.33;1.13;;;;;;;;;;4987109;28;20030;-59
2023/09/24 02:00:59;;;;;;;5.93;1.35;;;;;;;;;;4985647;28;20113;-59
2023/09/24 02:03:26;;;;;;;3.70;1.40;;;;;;;;;;4986284;28;20117;-59
2023/09/24 02:05:53;;;;;;;2.08;0.77;;;;;;;;;;4989754;28;20033;-60
2023/09/24 02:08:20;;;;;;;8.00;1.97;;;;;;;;;;4992723;28;20030;-59
2023/09/24 02:10:46;;;;;;;1.37;0.80;;;;;;;;;;4975447;28;20537;-59
2023/09/24 02:13:13;;;;;;;12.53;1.30;;;;;;;;;;4992328;28;20030;-59
2023/09/24 02:15:40;;;;;;;2.10;0.83;;;;;;;;;;4992737;28;20042;-59
2023/09/24 02:18:07;;;;;;;1.60;0.93;;;;;;;;;;4990721;28;20390;-59
2023/09/24 02:20:34;;;;;;;1.87;1.13;;;;;;;;;;4987814;28;20370;-59
2023/09/24 02:23:02;;;;;;;1.17;0.70;;;;;;;;;;4988078;28;20030;-59
2023/09/24 02:25:30;;;;;;;2.17;1.07;;;;;;;;;;4987658;28;20039;-59
2023/09/24 02:27:57;;;;;;;1.93;1.10;;;;;;;;;;4977413;28;20173;-59
2023/09/24 02:30:27;;;;;;;2.07;1.30;;;;;;;;;;4973107;28;20039;-59
2023/09/24 02:32:54;;;;;;;2.30;0.70;;;;;;;;;;4972925;28;20552;-59
2023/09/24 02:35:20;;;;;;;4.43;1.23;;;;;;;;;;4972867;28;20026;-59
2023/09/24 02:37:47;;;;;;;2.33;1.33;;;;;;;;;;4982288;28;20026;-59
2023/09/24 02:40:21;;;;;;;2.53;0.97;;;;;;;;;;4991518;28;20062;-59
2023/09/24 02:42:48;;;;;;;0.80;0.60;;;;;;;;;;4973116;28;20030;-59
2023/09/24 02:45:16;;;;;;;1.00;0.67;;;;;;;;;;4968268;28;20039;-59
2023/09/24 02:47:43;;;;;;;0.97;0.83;;;;;;;;;;4968321;28;20152;-58
2023/09/24 02:50:13;;;;;;;0.57;0.43;;;;;;;;;;4968499;28;20046;-59
2023/09/24 02:52:43;;;;;;;2.00;0.80;;;;;;;;;;4972584;28;20031;-58
2023/09/24 02:55:10;;;;;;;1.13;0.87;;;;;;;;;;4991940;28;20113;-58
2023/09/24 02:57:38;;;;;;;5.47;1.40;;;;;;;;;;4974840;28;20620;-58
2023/09/24 03:00:11;;;;;;;3.03;0.87;;;;;;;;;;4990258;28;20491;-59
2023/09/24 03:02:38;;;;;;;0.97;0.73;;;;;;;;;;4989909;28;20042;-58
2023/09/24 03:05:08;;;;;;;12.37;1.27;;;;;;;;;;4978503;28;20117;-58
2023/09/24 03:07:34;;;;;;;5.70;1.03;;;;;;;;;;4984958;28;20030;-59
2023/09/24 03:10:01;;;;;;;4.47;0.93;;;;;;;;;;4987150;28;20033;-60
2023/09/24 03:12:27;;;;;;;1.77;1.10;;;;;;;;;;4987508;28;20388;-58
2023/09/24 03:14:54;;;;;;;2.97;1.30;;;;;;;;;;4992115;28;20046;-58
2023/09/24 03:17:21;;;;;;;1.97;0.90;;;;;;;;;;4994316;28;20120;-58
2023/09/24 03:19:47;;;;;;;2.13;0.93;;;;;;;;;;4984697;28;20036;-58
2023/09/24 03:22:14;;;;;;;1.83;1.00;;;;;;;;;;4993451;28;20050;-58
2023/09/24 03:24:42;;;;;;;1.87;0.87;;;;;;;;;;4995434;28;20046;-58
2023/09/24 03:27:09;;;;;;;3.60;0.70;;;;;;;;;;4985837;28;20043;-58
2023/09/24 03:29:35;;;;;;;1.17;0.87;;;;;;;;;;4984891;28;20026;-58
2023/09/24 03:32:02;;;;;;;1.23;0.80;;;;;;;;;;4990098;28;20038;-58
2023/09/24 03:34:29;;;;;;;1.90;0.83;;;;;;;;;;4990618;28;20033;-59
2023/09/24 03:36:55;;;;;;;3.07;1.10;;;;;;;;;;4994169;28;20027;-58
2023/09/24 03:39:23;;;;;;;5.27;0.83;;;;;;;;;;4995625;28;20054;-58
2023/09/24 03:41:49;;;;;;;2.10;1.30;;;;;;;;;;4977039;28;20069;-59
2023/09/24 03:44:16;;;;;;;1.50;0.90;;;;;;;;;;4975876;28;20043;-58
2023/09/24 03:46:43;;;;;;;0.80;0.53;;;;;;;;;;4975690;28;20022;-58
2023/09/24 03:49:11;;;;;;;1.67;0.80;;;;;;;;;;4972610;28;20027;-59
2023/09/24 03:51:37;;;;;;;1.10;0.70;;;;;;;;;;4970683;28;20493;-60
2023/09/24 03:54:04;;;;;;;0.93;0.77;;;;;;;;;;4989660;28;20077;-58
2023/09/24 03:56:31;;;;;;;8.17;2.17;;;;;;;;;;4990362;28;20046;-58
2023/09/24 03:58:58;;;;;;;1.10;0.70;;;;;;;;;;4992267;28;20105;-59
2023/09/24 04:01:24;;;;;;;1.40;0.60;;;;;;;;;;4982057;28;20022;-58
2023/09/24 04:03:51;;;;;;;1.13;0.67;;;;;;;;;;4975463;28;20093;-59
2023/09/24 04:06:18;;;;;;;1.70;1.17;;;;;;;;;;4975452;28;20105;-58
2023/09/24 04:08:45;;;;;;;1.90;1.30;;;;;;;;;;4975510;28;20035;-58
2023/09/24 04:11:15;;;;;;;1.33;0.80;;;;;;;;;;4973117;28;20409;-59
2023/09/24 04:13:42;;;;;;;3.50;1.53;;;;;;;;;;4970287;28;20368;-58
2023/09/24 04:16:13;;;;;;;1.37;0.90;;;;;;;;;;4971263;28;20082;-58
2023/09/24 04:18:41;;;;;;;2.93;1.10;;;;;;;;;;4970475;28;20038;-59
2023/09/24 04:21:15;;;;;;;2.40;1.20;;;;;;;;;;4971940;28;20483;-58
2023/09/24 04:23:42;;;;;;;4.88;1.70;;;;;;;;;;4975080;28;20031;-58
2023/09/24 04:26:22;;;;;;;1.70;0.90;;;;;;;;;;4992381;28;20041;-59
2023/09/24 04:28:51;;;;;;;1.67;0.47;;;;;;;;;;4975495;28;20062;-58
2023/09/24 04:31:18;;;;;;;2.57;1.00;;;;;;;;;;4989048;28;20112;-59
2023/09/24 04:33:45;;;;;;;7.33;0.90;;;;;;;;;;4992459;28;20030;-58
2023/09/24 04:36:12;;;;;;;1.70;0.93;;;;;;;;;;4989400;28;20022;-58
2023/09/24 04:38:41;;;;;;;2.67;1.07;;;;;;;;;;4988891;28;20042;-58
2023/09/24 04:41:08;;;;;;;3.77;1.10;;;;;;;;;;4989461;28;20034;-58
2023/09/24 04:43:35;;;;;;;1.40;0.80;;;;;;;;;;4990597;28;20027;-58
2023/09/24 04:46:05;;;;;;;2.57;1.23;;;;;;;;;;4993823;28;20038;-58
2023/09/24 04:48:36;;;;;;;3.00;1.90;;;;;;;;;;4992615;28;20033;-58
2023/09/24 04:51:02;;;;;;;1.80;1.20;;;;;;;;;;4974578;28;20505;-59
2023/09/24 04:53:30;;;;;;;1.83;1.20;;;;;;;;;;4979851;28;20017;-58
2023/09/24 04:55:57;;;;;;;2.03;1.20;;;;;;;;;;4992621;28;20109;-58
2023/09/24 04:58:24;;;;;;;1.80;1.10;;;;;;;;;;4989089;28;20038;-58
2023/09/24 05:00:51;;;;;;;3.97;1.30;;;;;;;;;;4973244;28;20034;-58
2023/09/24 05:03:18;;;;;;;1.70;1.13;;;;;;;;;;4988920;28;20036;-58
2023/09/24 05:05:44;;;;;;;2.00;1.40;;;;;;;;;;4988911;28;20417;-59
2023/09/24 05:08:11;;;;;;;1.57;1.03;;;;;;;;;;4993739;28;20030;-57
2023/09/24 05:10:41;;;;;;;7.60;2.07;;;;;;;;;;4991333;28;20029;-58
2023/09/24 05:13:08;;;;;;;10.20;1.67;;;;;;;;;;4974224;28;20109;-59
2023/09/24 05:15:35;;;;;;;9.10;1.40;;;;;;;;;;4973963;28;20026;-58
2023/09/24 05:18:02;;;;;;;1.00;0.80;;;;;;;;;;4974047;28;20470;-58
2023/09/24 05:20:30;;;;;;;1.30;0.90;;;;;;;;;;4969362;28;20022;-58
2023/09/24 05:22:57;;;;;;;1.00;0.67;;;;;;;;;;4975617;28;20027;-57
2023/09/24 05:25:23;;;;;;;1.97;1.43;;;;;;;;;;4988149;28;20334;-58
2023/09/24 05:27:50;;;;;;;2.33;1.73;;;;;;;;;;4977768;28;20512;-57
2023/09/24 05:30:17;;;;;;;10.03;1.70;;;;;;;;;;4973214;28;20029;-58
2023/09/24 05:32:44;;;;;;;2.47;1.50;;;;;;;;;;4973939;28;20181;-58
2023/09/24 05:35:11;;;;;;;1.43;0.80;;;;;;;;;;4981293;28;20037;-58
2023/09/24 05:37:39;;;;;;;1.20;1.00;;;;;;;;;;4993352;28;20030;-57
2023/09/24 05:40:06;;;;;;;1.93;0.90;;;;;;;;;;4992346;28;20057;-58
2023/09/24 05:42:32;;;;;;;2.00;1.10;;;;;;;;;;4988625;28;20018;-58
2023/09/24 05:44:59;;;;;;;1.57;0.93;;;;;;;;;;4988324;28;20113;-58
2023/09/24 05:47:27;;;;;;;5.50;1.13;;;;;;;;;;4976640;28;20510;-58
2023/09/24 05:49:54;;;;;;;3.23;1.60;;;;;;;;;;4968847;28;20023;-57
2023/09/24 05:52:21;;;;;;;2.43;1.27;;;;;;;;;;4971646;28;20490;-58
2023/09/24 05:54:47;;;;;;;1.50;0.80;;;;;;;;;;4989474;28;20033;-57
2023/09/24 05:57:14;;;;;;;1.10;0.77;;;;;;;;;;4992894;28;20029;-58
2023/09/24 05:59:40;;;;;;;1.27;0.83;;;;;;;;;;4977350;28;20089;-58
2023/09/24 06:02:07;;;;;;;3.07;1.10;;;;;;;;;;4973309;28;20403;-58
2023/09/24 06:04:34;;;;;;;2.90;1.10;;;;;;;;;;4970929;28;20447;-58
2023/09/24 06:07:00;;;;;;;6.27;1.63;;;;;;;;;;4968626;28;20089;-58
2023/09/24 06:09:30;;;;;;;0.47;0.40;;;;;;;;;;4968588;28;20103;-57
2023/09/24 06:11:56;;;;;;;2.50;1.37;;;;;;;;;;4987850;28;20042;-58
2023/09/24 06:14:23;;;;;;;1.03;0.80;;;;;;;;;;4990026;28;20026;-57
2023/09/24 06:16:50;;;;;;;0.97;0.70;;;;;;;;;;4992527;28;20061;-57
2023/09/24 06:19:17;;;;;;;2.40;1.27;;;;;;;;;;4992776;28;20083;-58
2023/09/24 06:21:43;;;;;;;1.13;0.87;;;;;;;;;;4991547;28;20038;-58
2023/09/24 06:24:10;;;;;;;3.00;1.37;;;;;;;;;;4992131;28;20537;-58
2023/09/24 06:26:38;;;;;;;2.23;1.33;;;;;;;;;;4972520;28;20054;-58
2023/09/24 06:29:05;;;;;;;2.57;0.93;;;;;;;;;;4987832;28;20385;-58
2023/09/24 06:31:32;;;;;;;10.40;1.00;;;;;;;;;;4987877;28;20470;-57
2023/09/24 06:34:00;;;;;;;11.20;1.07;;;;;;;;;;4987685;28;20084;-58
2023/09/24 06:36:26;;;;;;;5.03;1.27;;;;;;;;;;4988155;28;20041;-57
2023/09/24 06:38:54;;;;;;;3.60;1.97;;;;;;;;;;4992484;28;20018;-58
2023/09/24 06:41:22;;;;;;;1.63;0.77;;;;;;;;;;4992115;28;20650;-58
2023/09/24 06:43:49;;;;;;;1.80;1.00;;;;;;;;;;4992482;28;20070;-58
2023/09/24 06:46:15;;;;;;;1.30;0.87;;;;;;;;;;4992660;28;20392;-57
2023/09/24 06:48:42;;;;;;;2.13;0.77;;;;;;;;;;4973352;28;20033;-57
2023/09/24 06:51:11;;;;;;;3.40;1.53;;;;;;;;;;4968993;28;20029;-57
2023/09/24 06:53:39;;;;;;;1.37;0.97;;;;;;;;;;4978696;28;20381;-57
2023/09/24 06:56:09;;;;;;;1.17;0.83;;;;;;;;;;4991263;28;20030;-57
2023/09/24 06:58:36;;;;;;;1.00;0.60;;;;;;;;;;4990634;28;20381;-58
2023/09/24 07:01:03;;;;;;;0.90;0.70;;;;;;;;;;4980372;28;20065;-58
2023/09/24 07:03:30;;;;;;;0.53;0.40;;;;;;;;;;4995847;28;20037;-57
2023/09/24 07:05:57;;;;;;;0.30;0.20;;;;;;;;;;4981800;28;20015;-57
2023/09/24 07:08:24;;;;;;;0.77;0.53;;;;;;;;;;4976388;28;20030;-58
2023/09/24 07:11:11;;;;;;;0.60;0.50;;;;;;;;;;4978162;28;20039;-57
2023/09/24 07:13:37;;;;;;;1.50;0.77;;;;;;;;;;4990571;28;20490;-57
2023/09/24 07:16:05;;;;;;;2.20;0.87;;;;;;;;;;4990852;28;20026;-58
2023/09/24 07:18:32;;;;;;;0.70;0.50;;;;;;;;;;4990954;28;20034;-58
2023/09/24 07:20:59;;;;;;;0.97;0.50;;;;;;;;;;4990853;28;20058;-57
2023/09/24 07:23:25;;;;;;;1.40;0.70;;;;;;;;;;4989940;28;20019;-57
2023/09/24 07:25:52;;;;;;;0.83;0.63;;;;;;;;;;4976232;28;20360;-58
2023/09/24 07:28:24;;;;;;;1.30;0.60;;;;;;;;;;4990691;28;20093;-58
2023/09/24 07:30:52;;;;;;;1.77;1.17;;;;;;;;;;4995563;28;20034;-58
2023/09/24 07:33:19;;;;;;;1.53;1.10;;;;;;;;;;4995303;28;20038;-57
2023/09/24 07:35:46;;;;;;;1.73;1.13;;;;;;;;;;4990519;28;20051;-57
2023/09/24 07:38:13;;;;;;;1.07;0.80;;;;;;;;;;4990650;28;20390;-57
2023/09/24 07:40:39;;;;;;;1.33;0.80;;;;;;;;;;4990547;28;20030;-58
2023/09/24 07:43:09;;;;;;;1.07;0.63;;;;;;;;;;4989977;28;20486;-57
2023/09/24 07:45:36;;;;;;;1.53;0.80;;;;;;;;;;4994123;28;20034;-57
2023/09/24 07:48:06;;;;;;;1.67;1.00;;;;;;;;;;4987151;28;20038;-58
2023/09/24 07:50:33;;;;;;;0.90;0.70;;;;;;;;;;4975330;28;20036;-57
2023/09/24 07:52:59;;;;;;;2.37;1.00;;;;;;;;;;4976940;28;20382;-58
2023/09/24 07:55:26;;;;;;;4.53;0.73;;;;;;;;;;4995244;28;20031;-57
2023/09/24 07:57:53;;;;;;;0.63;0.60;;;;;;;;;;4991504;28;20026;-57
2023/09/24 08:00:20;;;;;;;1.13;0.80;;;;;;;;;;4978929;28;20034;-58
2023/09/24 08:02:47;;;;;;;1.13;0.73;;;;;;;;;;4969884;28;20166;-58
2023/09/24 08:05:15;;;;;;;1.47;1.10;;;;;;;;;;4970696;28;20496;-58
2023/09/24 08:07:41;;;;;;;3.67;0.97;;;;;;;;;;4973211;28;20031;-58
2023/09/24 08:10:08;;;;;;;1.23;0.90;;;;;;;;;;4975035;28;20030;-57
2023/09/24 08:12:35;;;;;;;0.83;0.53;;;;;;;;;;4975540;28;20058;-58
2023/09/24 08:15:01;;;;;;;2.60;0.60;;;;;;;;;;4975399;28;20066;-58
2023/09/24 08:17:28;;;;;;;3.00;1.03;;;;;;;;;;4975204;28;20478;-58
2023/09/24 08:19:55;;;;;;;1.03;0.77;;;;;;;;;;4972742;28;20474;-58
2023/09/24 08:22:23;;;;;;;0.90;0.53;;;;;;;;;;4970526;28;20054;-57
2023/09/24 08:24:49;;;;;;;1.80;0.80;;;;;;;;;;4985255;28;20053;-57
2023/09/24 08:27:16;;;;;;;1.10;0.83;;;;;;;;;;4983688;28;20425;-57
2023/09/24 08:29:43;;;;;;;4.77;1.00;;;;;;;;;;4971297;28;20026;-57
2023/09/24 08:32:09;;;;;;;1.20;0.80;;;;;;;;;;4974800;28;20037;-57
2023/09/24 08:34:36;;;;;;;1.50;0.93;;;;;;;;;;4974980;28;20330;-57
2023/09/24 08:37:03;;;;;;;0.83;0.67;;;;;;;;;;4991434;28;20023;-57
2023/09/24 08:39:29;;;;;;;0.47;0.37;;;;;;;;;;4994239;28;20096;-57
2023/09/24 08:41:56;;;;;;;0.67;0.60;;;;;;;;;;4991120;28;20026;-58
2023/09/24 08:44:25;;;;;;;0.70;0.60;;;;;;;;;;4989367;28;20073;-57
2023/09/24 08:46:52;;;;;;;0.37;0.30;;;;;;;;;;4989427;28;20054;-57
2023/09/24 08:49:19;;;;;;;0.60;0.33;;;;;;;;;;4989258;28;20429;-57
2023/09/24 08:51:46;;;;;;;0.37;0.23;;;;;;;;;;4977495;28;20077;-57
2023/09/24 08:54:14;;;;;;;0.50;0.47;;;;;;;;;;4985688;28;20027;-57
2023/09/24 08:56:41;;;;;;;1.03;0.70;;;;;;;;;;4993908;28;20126;-57
2023/09/24 08:59:07;;;;;;;1.27;0.53;;;;;;;;;;4993839;28;20033;-58
2023/09/24 09:01:35;;;;;;;0.50;0.40;;;;;;;;;;4981370;28;20022;-57
2023/09/24 09:04:02;;;;;;;1.63;1.10;;;;;;;;;;4979372;28;20053;-57
2023/09/24 09:06:36;;;;;;;0.20;0.20;;;;;;;;;;4969725;28;20142;-57
2023/09/24 09:09:03;;;;;;;1.07;0.70;;;;;;;;;;4969229;28;20027;-59
2023/09/24 09:11:43;;;;;;;0.60;0.40;;;;;;;;;;4969683;28;20031;-58
2023/09/24 09:14:10;;;;;;;1.27;0.60;;;;;;;;;;4970551;28;20019;-57
2023/09/24 09:16:57;;;;;;;0.60;0.50;;;;;;;;;;4993500;28;20026;-58
2023/09/24 09:19:24;;;;;;;1.37;0.97;;;;;;;;;;4993632;28;20053;-57
2023/09/24 09:21:51;;;;;;;1.07;0.50;;;;;;;;;;4993499;28;20596;-57
2023/09/24 09:24:24;;;;;;;3.63;1.00;;;;;;;;;;4993364;28;20059;-57
2023/09/24 09:26:57;;;;;;;1.67;0.90;;;;;;;;;;4987514;28;20037;-58
2023/09/24 09:29:25;;;;;;;0.27;0.27;;;;;;;;;;4969112;28;20099;-58
2023/09/24 09:31:54;;;;;;;0.23;0.23;;;;;;;;;;4968833;28;20027;-58
2023/09/24 09:34:21;;;;;;;0.53;0.37;;;;;;;;;;4968993;28;20461;-58
2023/09/24 09:36:47;;;;;;;0.53;0.43;;;;;;;;;;4969656;28;20628;-57
2023/09/24 09:39:14;;;;;;;0.80;0.47;;;;;;;;;;4983053;28;20389;-58
2023/09/24 09:41:44;;;;;;;0.50;0.40;;;;;;;;;;4993189;28;20473;-57
2023/09/24 09:44:11;;;;;;;0.67;0.47;;;;;;;;;;4992929;28;20027;-57
2023/09/24 09:46:45;;;;;;;0.40;0.30;;;;;;;;;;4993201;28;20030;-58
2023/09/24 09:49:13;;;;;;;1.13;0.63;;;;;;;;;;4992040;28;20028;-57
2023/09/24 09:51:47;;;;;;;0.67;0.50;;;;;;;;;;4974125;28;20023;-57
2023/09/24 09:54:14;;;;;;;0.47;0.33;;;;;;;;;;4980223;28;20037;-58
2023/09/24 09:56:41;;;;;;;0.80;0.60;;;;;;;;;;4988305;28;20036;-57
2023/09/24 09:59:08;;;;;;;0.73;0.40;;;;;;;;;;4988083;28;20030;-57
2023/09/24 10:01:35;;;;;;;6.13;0.60;;;;;;;;;;4978524;28;20161;-57
2023/09/24 10:04:03;;;;;;;0.83;0.50;;;;;;;;;;4973606;28;20039;-57
2023/09/24 10:06:34;;;;;;;1.10;0.60;;;;;;;;;;4973144;28;20041;-57
2023/09/24 10:09:00;;;;;;;0.30;0.30;;;;;;;;;;4973384;28;20573;-57
2023/09/24 10:11:33;;;;;;;0.67;0.50;;;;;;;;;;4973591;28;20149;-56
2023/09/24 10:14:05;;;;;;;0.47;0.33;;;;;;;;;;4968835;28;20105;-57
2023/09/24 10:16:39;;;;;;;0.60;0.40;;;;;;;;;;4985819;28;20030;-57
2023/09/24 10:19:06;;;;;;;0.95;0.65;;;;;;;;;;4987959;28;20077;-57
2023/09/24 10:21:33;;;;;;;0.70;0.60;;;;;;;;;;4987987;28;20030;-57
2023/09/24 10:24:15;;;;;;;1.17;0.87;;;;;;;;;;4992815;28;20027;-57
2023/09/24 10:26:54;;;;;;;1.10;0.80;;;;;;;;;;4993250;28;20041;-56
2023/09/24 10:29:40;;;;;;;1.87;0.53;;;;;;;;;;4996756;28;20034;-57
2023/09/24 10:32:10;;;;;;;0.83;0.53;;;;;;;;;;4996763;28;20038;-57
2023/09/24 10:37:25;;;;;;;1.60;1.00;;;;;;;;;;4991991;28;20030;-56
2023/09/24 10:40:12;;;;;;;0.90;0.77;;;;;;;;;;4987033;28;20477;-57
2023/09/24 10:42:41;;;;;;;1.80;0.93;;;;;;;;;;4976285;28;20500;-57
2023/09/24 10:45:08;;;;;;;1.03;0.73;;;;;;;;;;4991931;28;20052;-57
2023/09/24 10:47:36;;;;;;;1.17;0.80;;;;;;;;;;4996714;28;20019;-57
2023/09/24 10:50:03;;;;;;;1.63;0.93;;;;;;;;;;4984676;28;20039;-57
2023/09/24 10:52:46;;;;;;;1.30;0.90;;;;;;;;;;4989520;28;20043;-57
2023/09/24 10:55:12;;;;;;;2.80;1.13;;;;;;;;;;4995663;28;20054;-57
2023/09/24 10:57:39;;;;;;;1.63;0.70;;;;;;;;;;4993445;28;20030;-57
2023/09/24 11:00:14;;;;;;;2.13;0.77;;;;;;;;;;4990776;28;20064;-57
2023/09/24 11:02:41;;;;;;;0.40;0.40;;;;;;;;;;4989214;28;20452;-57
2023/09/24 11:05:08;;;;;;;1.37;0.90;;;;;;;;;;4990863;28;20076;-57
2023/09/24 11:07:35;;;;;;;0.70;0.50;;;;;;;;;;4992815;28;20025;-56
2023/09/24 11:10:01;;;;;;;1.20;0.70;;;;;;;;;;4995824;28;20430;-57
2023/09/24 11:12:28;;;;;;;1.50;0.90;;;;;;;;;;4996016;28;20350;-57
2023/09/24 11:14:58;;;;;;;0.97;0.70;;;;;;;;;;4995403;28;20037;-57
2023/09/24 11:17:25;;;;;;;0.90;0.60;;;;;;;;;;4995747;28;20034;-58
2023/09/24 11:19:52;;;;;;;1.60;0.87;;;;;;;;;;4993900;28;20080;-57
2023/09/24 11:22:27;;;;;;;2.10;1.33;;;;;;;;;;4990811;28;20022;-57
2023/09/24 11:25:09;;;;;;;1.00;0.80;;;;;;;;;;4990592;28;20034;-57
2023/09/24 11:27:44;;;;;;;1.17;0.67;;;;;;;;;;4971612;28;20033;-57
2023/09/24 11:30:10;;;;;;;;;;;;;;;;;;4974068;28;20426;-57
2023/09/24 11:32:37;;;;;;;5.03;0.60;;;;;;;;;;4976029;28;19906;-57
2023/09/24 11:35:07;;;;;;;5.80;0.90;;;;;;;;;;4975754;28;20019;-57
2023/09/24 11:37:49;;;;;;;1.93;0.90;;;;;;;;;;4976714;28;20101;-57
2023/09/24 11:40:23;;;;;;;0.70;0.50;;;;;;;;;;4995287;28;20030;-57
2023/09/24 11:42:53;;;;;;;3.50;0.97;;;;;;;;;;4992097;28;20031;-57
2023/09/24 11:45:35;;;;;;;2.70;0.93;;;;;;;;;;4983429;28;20121;-56
2023/09/24 11:48:03;;;;;;;2.37;1.00;;;;;;;;;;4970809;28;20045;-57
2023/09/24 11:50:30;;;;;;;1.37;1.10;;;;;;;;;;4970959;28;20034;-57
2023/09/24 11:52:56;;;;;;;1.23;0.80;;;;;;;;;;4973288;28;20037;-57
2023/09/24 11:55:23;;;;;;;0.80;0.70;;;;;;;;;;4981163;28;20140;-57
2023/09/24 11:57:49;;;;;;;0.77;0.57;;;;;;;;;;4995097;28;20033;-57
2023/09/24 12:00:16;;;;;;;2.00;0.97;;;;;;;;;;4994589;28;20038;-57
2023/09/24 12:02:43;;;;;;;1.90;0.87;;;;;;;;;;4994858;28;20381;-57
2023/09/24 12:05:10;;;;;;;2.53;1.43;;;;;;;;;;4974873;28;20046;-57
2023/09/24 12:07:36;;;;;;;1.37;0.80;;;;;;;;;;4970356;28;20023;-57
2023/09/24 12:10:03;;;;;;;4.47;0.90;;;;;;;;;;4970598;28;20035;-57
2023/09/24 12:12:30;;;;;;;1.90;1.40;;;;;;;;;;4970555;28;20038;-57
2023/09/24 12:14:56;;;;;;;2.10;1.23;;;;;;;;;;4986970;28;20589;-57
2023/09/24 12:17:23;;;;;;;1.00;0.80;;;;;;;;;;4994729;28;20045;-57
2023/09/24 12:19:52;;;;;;;0.70;0.67;;;;;;;;;;4994366;28;20022;-57
2023/09/24 12:22:18;;;;;;;1.07;0.70;;;;;;;;;;4994614;28;20034;-57
2023/09/24 12:24:45;;;;;;;1.00;0.60;;;;;;;;;;4994366;28;20397;-57
2023/09/24 12:27:12;;;;;;;1.17;0.80;;;;;;;;;;4977947;28;20041;-57
2023/09/24 12:29:38;;;;;;;1.40;1.10;;;;;;;;;;4969946;28;20027;-57
2023/09/24 12:32:05;;;;;;;8.03;1.57;;;;;;;;;;4970026;28;20019;-57
2023/09/24 12:34:32;;;;;;;1.23;1.03;;;;;;;;;;4970004;28;20109;-56
2023/09/24 12:36:59;;;;;;;1.27;1.03;;;;;;;;;;4970432;28;20053;-57
2023/09/24 12:39:25;;;;;;;3.63;1.13;;;;;;;;;;4992175;28;20034;-57
2023/09/24 12:41:52;;;;;;;1.67;1.10;;;;;;;;;;4994296;28;20034;-57
2023/09/24 12:44:19;;;;;;;1.57;0.97;;;;;;;;;;4994183;28;20034;-57
2023/09/24 12:46:46;;;;;;;4.40;1.00;;;;;;;;;;4994155;28;20026;-57
2023/09/24 12:49:12;;;;;;;1.00;0.80;;;;;;;;;;4992552;28;20026;-57
2023/09/24 12:51:39;;;;;;;2.07;1.37;;;;;;;;;;4970889;28;20434;-57
2023/09/24 12:54:06;;;;;;;2.13;0.90;;;;;;;;;;4969296;28;20098;-57
2023/09/24 12:56:32;;;;;;;1.70;1.23;;;;;;;;;;4969227;28;20027;-57
2023/09/24 12:59:02;;;;;;;1.97;1.30;;;;;;;;;;4969502;28;20031;-57
2023/09/24 13:01:28;;;;;;;1.87;0.83;;;;;;;;;;4975567;28;20026;-57
2023/09/24 13:03:55;;;;;;;1.47;1.10;;;;;;;;;;4992824;28;20031;-57
2023/09/24 13:06:26;;;;;;;1.60;1.30;;;;;;;;;;4993767;28;20033;-57
2023/09/24 13:08:53;;;;;;;4.20;2.13;;;;;;;;;;4993488;28;20043;-56
2023/09/24 13:11:20;;;;;;;6.27;1.83;;;;;;;;;;4993170;28;20426;-56
2023/09/24 13:13:47;;;;;;;5.17;1.50;;;;;;;;;;4987713;28;20030;-57
2023/09/24 13:16:14;;;;;;;1.87;1.07;;;;;;;;;;4988757;28;20024;-57
2023/09/24 13:18:40;;;;;;;4.17;1.73;;;;;;;;;;4988502;28;20098;-56
2023/09/24 13:21:07;;;;;;;8.30;1.63;;;;;;;;;;4988450;28;20036;-56
2023/09/24 13:23:33;;;;;;;1.27;1.00;;;;;;;;;;4992899;28;20102;-56
2023/09/24 13:26:00;;;;;;;2.73;1.07;;;;;;;;;;4979800;28;20110;-57
2023/09/24 13:28:27;;;;;;;3.37;1.43;;;;;;;;;;4974045;28;20022;-57
2023/09/24 13:30:57;;;;;;;3.37;1.37;;;;;;;;;;4974022;28;20409;-57
2023/09/24 13:33:24;;;;;;;1.30;0.80;;;;;;;;;;4973741;28;20384;-58
2023/09/24 13:35:51;;;;;;;2.90;1.57;;;;;;;;;;4980241;28;20038;-57
2023/09/24 13:38:18;;;;;;;2.60;1.07;;;;;;;;;;4988174;28;20034;-57
2023/09/24 13:40:45;;;;;;;2.10;1.00;;;;;;;;;;4980424;28;20152;-57
2023/09/24 13:43:12;;;;;;;1.77;1.00;;;;;;;;;;4968763;28;20433;-57
2023/09/24 13:45:42;;;;;;;2.13;1.23;;;;;;;;;;4972392;28;20031;-57
2023/09/24 13:48:12;;;;;;;0.70;0.70;;;;;;;;;;4973173;28;20033;-57
2023/09/24 13:50:52;;;;;;;0.80;0.60;;;;;;;;;;4979026;28;20027;-57
2023/09/24 13:53:20;;;;;;;5.57;1.40;;;;;;;;;;4992883;28;20026;-57
2023/09/24 13:55:50;;;;;;;2.40;1.17;;;;;;;;;;4993125;28;20473;-57
2023/09/24 13:58:17;;;;;;;2.13;1.17;;;;;;;;;;4988142;28;20023;-57
2023/09/24 14:00:51;;;;;;;2.23;1.30;;;;;;;;;;4987166;28;20058;-57
2023/09/24 14:03:19;;;;;;;4.85;1.20;;;;;;;;;;4976195;28;20043;-57
2023/09/24 14:05:45;;;;;;;0.73;0.60;;;;;;;;;;4968353;28;20077;-57
2023/09/24 14:13:42;;;;;;;2.97;1.43;;;;;;;;;;4973466;28;20384;-57
2023/09/24 14:16:12;;;;;;;3.67;1.07;;;;;;;;;;4988897;28;20113;-58
2023/09/24 14:18:39;;;;;;;1.20;0.87;;;;;;;;;;4992412;28;20023;-57
2023/09/24 14:21:10;;;;;;;0.70;0.70;;;;;;;;;;4987681;28;20022;-57
2023/09/24 14:23:36;;;;;;;1.83;1.10;;;;;;;;;;4987662;28;20398;-57
2023/09/24 14:26:03;;;;;;;1.77;1.00;;;;;;;;;;4985798;28;20560;-57
2023/09/24 14:28:31;;;;;;;1.53;1.03;;;;;;;;;;4968246;28;20031;-58
2023/09/24 14:31:02;;;;;;;2.10;1.07;;;;;;;;;;4972761;28;20039;-58
2023/09/24 14:33:29;;;;;;;1.13;0.83;;;;;;;;;;4973220;28;20081;-57
2023/09/24 14:35:59;;;;;;;1.40;1.00;;;;;;;;;;4973152;28;20038;-57
2023/09/24 14:38:31;;;;;;;0.97;0.80;;;;;;;;;;4974103;28;20144;-58
2023/09/24 14:40:58;;;;;;;1.33;1.00;;;;;;;;;;4992101;28;20054;-58
2023/09/24 14:43:26;;;;;;;0.70;0.60;;;;;;;;;;4987406;28;20022;-58
2023/09/24 14:46:11;;;;;;;0.90;0.63;;;;;;;;;;4987435;28;20035;-58
2023/09/24 14:48:37;;;;;;;;;;;;;;;;;;4987668;28;20026;-58
2023/09/24 14:51:04;;;;;;;1.42;0.85;;;;;;;;;;4982421;28;19910;-58
2023/09/24 14:53:32;;;;;;;0.38;0.38;;;;;;;;;;4972451;28;20470;-58
2023/09/24 14:55:59;;;;;;;0.60;0.60;;;;;;;;;;4972967;28;20475;-58